Time;durP1;ratioP1;P1;durP2;ratioP2;P2;SDS_P1;SDS_P2;PMS_P1;PMS_P2;Temp;Humidity;BMP_temperature;BMP_pressure;BME280_temperature;BME280_humidity;BME280_pressure;Samples;Min_cycle;Max_cycle;Signal;HPM_P1;HPM_P2
2023/10/22 00:01:19;;;;;;;2.38;0.70;;;;;;;19.77;54.78;99590.19;4989647;28;20343;-61
2023/10/22 00:03:44;;;;;;;1.33;0.50;;;;;;;19.78;54.62;99598.97;4989726;28;20147;-62
2023/10/22 00:06:09;;;;;;;2.60;0.65;;;;;;;19.78;54.52;99593.69;4990100;28;20042;-61
2023/10/22 00:08:35;;;;;;;3.00;0.63;;;;;;;19.77;54.52;99599.94;4989181;28;20080;-61
2023/10/22 00:11:00;;;;;;;1.90;0.60;;;;;;;19.76;54.52;99599.13;4989702;28;20030;-62
2023/10/22 00:13:25;;;;;;;2.05;0.57;;;;;;;19.75;54.56;99606.19;4989764;28;20553;-60
2023/10/22 00:15:50;;;;;;;2.53;0.70;;;;;;;19.76;54.39;99609.69;4989390;28;20031;-61
2023/10/22 00:18:16;;;;;;;1.67;0.67;;;;;;;19.75;54.59;99610.66;4989613;28;20347;-62
2023/10/22 00:20:44;;;;;;;1.60;0.55;;;;;;;19.75;54.48;99619.41;4989599;28;20260;-63
2023/10/22 00:23:09;;;;;;;1.42;0.60;;;;;;;19.77;54.33;99615.81;4989306;28;20113;-62
2023/10/22 00:25:35;;;;;;;2.58;0.60;;;;;;;19.73;54.47;99623.22;4989471;28;20069;-62
2023/10/22 00:28:01;;;;;;;2.70;0.70;;;;;;;19.74;54.58;99638.91;4987325;28;20038;-60
2023/10/22 00:30:26;;;;;;;1.98;0.60;;;;;;;19.72;54.40;99640.88;4989473;28;20038;-64
2023/10/22 00:32:51;;;;;;;3.03;0.70;;;;;;;19.71;54.21;99626.03;4989134;28;20030;-62
2023/10/22 00:35:17;;;;;;;3.45;0.65;;;;;;;19.73;54.26;99644.34;4988353;28;20038;-61
2023/10/22 00:37:42;;;;;;;1.88;0.60;;;;;;;19.73;54.58;99654.94;4989458;28;20482;-60
2023/10/22 00:40:08;;;;;;;2.60;0.98;;;;;;;19.73;54.36;99652.28;4989132;28;20161;-61
2023/10/22 00:42:33;;;;;;;2.42;0.73;;;;;;;19.72;54.55;99661.19;4989237;28;20038;-61
2023/10/22 00:44:58;;;;;;;3.10;0.80;;;;;;;19.72;54.46;99661.19;4989183;28;20498;-61
2023/10/22 00:47:24;;;;;;;1.33;0.60;;;;;;;19.70;54.46;99669.28;4988797;28;20058;-62
2023/10/22 00:49:50;;;;;;;1.35;0.60;;;;;;;19.71;54.18;99668.31;4989315;28;20116;-62
2023/10/22 00:52:16;;;;;;;1.58;0.60;;;;;;;19.70;54.38;99668.47;4989012;28;20184;-62
2023/10/22 00:54:43;;;;;;;3.30;0.60;;;;;;;19.69;54.47;99674.75;4988893;28;20042;-60
2023/10/22 00:57:08;;;;;;;1.15;0.50;;;;;;;19.70;54.27;99686.97;4989145;28;20030;-61
2023/10/22 00:59:34;;;;;;;1.90;0.50;;;;;;;19.68;54.37;99671.28;4989144;28;20033;-62
2023/10/22 01:01:59;;;;;;;1.75;0.60;;;;;;;19.68;54.42;99675.75;4988858;28;20030;-63
2023/10/22 01:04:25;;;;;;;1.67;0.60;;;;;;;19.67;54.23;99682.81;4988751;28;20493;-62
2023/10/22 01:06:50;;;;;;;2.42;0.65;;;;;;;19.67;54.36;99680.19;4988535;28;20053;-62
2023/10/22 01:09:16;;;;;;;3.03;0.60;;;;;;;19.67;54.18;99677.53;4988848;28;20046;-62
2023/10/22 01:12:04;;;;;;;2.88;0.80;;;;;;;19.67;54.15;99677.53;4988810;28;20442;-63
2023/10/22 01:14:29;;;;;;;1.35;0.50;;;;;;;19.68;54.06;99687.13;4988649;28;20034;-61
2023/10/22 01:16:55;;;;;;;3.55;0.80;;;;;;;19.68;54.24;99691.59;4988629;28;20497;-61
2023/10/22 01:19:20;;;;;;;1.58;0.50;;;;;;;19.68;54.22;99696.91;4988158;28;20038;-63
2023/10/22 01:21:46;;;;;;;2.38;1.08;;;;;;;19.67;54.15;99692.59;4988618;28;20784;-61
2023/10/22 01:24:11;;;;;;;2.78;0.82;;;;;;;19.65;54.03;99711.25;4988504;28;20023;-60
2023/10/22 01:26:41;;;;;;;2.55;0.65;;;;;;;19.63;54.34;99700.03;4988190;28;20515;-61
2023/10/22 01:29:06;;;;;;;1.27;0.60;;;;;;;19.65;54.09;99705.97;4988272;28;20038;-62
2023/10/22 01:31:31;;;;;;;2.43;0.60;;;;;;;19.64;54.23;99711.41;4988282;28;20041;-62
2023/10/22 01:33:56;;;;;;;2.75;0.70;;;;;;;19.65;54.00;99729.75;4988034;28;20335;-60
2023/10/22 01:36:22;;;;;;;2.53;0.63;;;;;;;19.65;54.08;99734.22;4988172;28;20030;-64
2023/10/22 01:38:47;;;;;;;2.63;0.80;;;;;;;19.63;54.19;99736.19;4988101;28;20120;-62
2023/10/22 01:41:13;;;;;;;1.25;0.60;;;;;;;19.64;54.32;99740.47;4988293;28;20030;-62
2023/10/22 01:43:38;;;;;;;1.95;0.60;;;;;;;19.64;54.29;99757.16;4988005;28;20042;-64
2023/10/22 01:46:03;;;;;;;1.52;0.60;;;;;;;19.62;54.02;99764.44;4988165;28;20088;-60
2023/10/22 01:48:29;;;;;;;4.10;0.75;;;;;;;19.63;54.12;99760.81;4987722;28;20064;-62
2023/10/22 01:50:54;;;;;;;3.20;0.75;;;;;;;19.62;54.06;99751.22;4987919;28;20038;-64
2023/10/22 01:53:19;;;;;;;2.13;0.63;;;;;;;19.62;54.19;99767.06;4986603;28;20034;-62
2023/10/22 01:55:45;;;;;;;2.65;0.70;;;;;;;19.62;54.13;99769.72;4987735;28;20081;-64
2023/10/22 01:58:10;;;;;;;1.83;0.50;;;;;;;19.63;54.18;99778.47;4987702;28;20085;-62
2023/10/22 02:00:36;;;;;;;2.20;0.60;;;;;;;19.61;54.22;99780.44;4987705;28;20489;-63
2023/10/22 02:03:01;;;;;;;3.20;0.65;;;;;;;19.60;54.12;99779.63;4987319;28;20311;-61
2023/10/22 02:05:26;;;;;;;1.63;0.70;;;;;;;19.62;54.27;99784.75;4987663;28;20491;-61
2023/10/22 02:07:52;;;;;;;1.50;0.60;;;;;;;19.59;54.38;99788.53;4987751;28;20065;-62
2023/10/22 02:10:17;;;;;;;2.23;0.60;;;;;;;19.58;54.63;99797.44;4987398;28;20044;-61
2023/10/22 02:12:43;;;;;;;2.00;0.80;;;;;;;19.58;54.32;99793.00;4987656;28;20827;-62
2023/10/22 02:15:08;;;;;;;1.25;0.60;;;;;;;19.58;54.43;99800.94;4987341;28;20117;-62
2023/10/22 02:17:34;;;;;;;2.05;0.50;;;;;;;19.56;54.52;99799.41;4987259;28;20026;-62
2023/10/22 02:19:59;;;;;;;2.45;0.68;;;;;;;19.58;54.33;99802.72;4987518;28;20078;-61
2023/10/22 02:22:24;;;;;;;1.67;0.57;;;;;;;19.59;54.35;99804.38;4987418;28;20463;-61
2023/10/22 02:24:50;;;;;;;3.42;0.60;;;;;;;19.58;54.44;99814.16;4987229;28;20030;-62
2023/10/22 02:27:15;;;;;;;2.40;0.60;;;;;;;19.56;54.49;99816.09;4987407;28;20092;-61
2023/10/22 02:29:40;;;;;;;1.63;0.60;;;;;;;19.59;54.48;99828.19;4987117;28;20037;-62
2023/10/22 02:32:06;;;;;;;1.23;0.60;;;;;;;19.57;54.20;99823.03;4987234;28;20030;-60
2023/10/22 02:34:32;;;;;;;3.33;1.00;;;;;;;19.58;54.58;99823.88;4987392;28;20026;-61
2023/10/22 02:36:57;;;;;;;2.55;0.73;;;;;;;19.56;54.51;99831.94;4987535;28;20090;-61
2023/10/22 02:39:22;;;;;;;1.55;0.60;;;;;;;19.57;54.51;99835.44;4987056;28;20045;-62
2023/10/22 02:41:48;;;;;;;2.08;0.70;;;;;;;19.55;54.45;99840.88;4987183;28;20030;-63
2023/10/22 02:44:13;;;;;;;2.75;0.70;;;;;;;19.56;54.41;99850.44;4987448;28;20033;-62
2023/10/22 02:46:38;;;;;;;3.17;0.93;;;;;;;19.56;54.44;99853.09;4986993;28;20515;-61
2023/10/22 02:49:03;;;;;;;2.38;0.70;;;;;;;19.55;54.37;99862.03;4986836;28;20290;-62
2023/10/22 02:51:29;;;;;;;1.90;0.60;;;;;;;19.55;54.44;99864.66;4986613;28;20061;-64
2023/10/22 02:53:55;;;;;;;2.53;0.70;;;;;;;19.56;54.62;99871.59;4987163;28;20479;-60
2023/10/22 02:56:20;;;;;;;2.47;0.52;;;;;;;19.56;54.58;99878.69;4986927;28;20042;-61
2023/10/22 02:58:45;;;;;;;2.72;0.65;;;;;;;19.55;54.43;99880.53;4986516;28;20031;-62
2023/10/22 03:01:11;;;;;;;2.40;0.70;;;;;;;19.55;54.60;99879.69;4986945;28;20040;-61
2023/10/22 03:03:41;;;;;;;2.10;0.60;;;;;;;19.54;54.44;99880.69;4986796;28;20267;-62
2023/10/22 03:06:08;;;;;;;3.15;0.80;;;;;;;19.53;54.37;99887.75;4986933;28;20479;-62
2023/10/22 03:08:34;;;;;;;1.65;0.70;;;;;;;19.53;54.47;99900.16;4986902;28;20421;-62
2023/10/22 03:11:00;;;;;;;1.88;0.50;;;;;;;19.53;54.45;99898.34;4986898;28;20451;-63
2023/10/22 03:13:26;;;;;;;1.00;0.60;;;;;;;19.52;54.48;99901.16;4986899;28;20038;-62
2023/10/22 03:15:51;;;;;;;1.50;0.68;;;;;;;19.53;54.57;99902.78;4986734;28;20031;-62
2023/10/22 03:18:16;;;;;;;1.70;0.60;;;;;;;19.51;54.50;99913.53;4986598;28;20701;-63
2023/10/22 03:20:42;;;;;;;2.75;0.82;;;;;;;19.50;54.39;99908.41;4986742;28;20028;-62
2023/10/22 03:23:07;;;;;;;2.10;0.70;;;;;;;19.51;54.47;99924.09;4986710;28;20045;-62
2023/10/22 03:25:34;;;;;;;2.22;0.60;;;;;;;19.50;54.41;99934.81;4985255;28;20038;-63
2023/10/22 03:28:00;;;;;;;2.17;0.75;;;;;;;19.49;54.34;99938.47;4986759;28;20034;-61
2023/10/22 03:30:26;;;;;;;2.15;0.68;;;;;;;19.49;54.23;99949.84;4986483;28;20022;-62
2023/10/22 03:32:51;;;;;;;2.35;0.70;;;;;;;19.50;54.28;99945.38;4986374;28;20467;-62
2023/10/22 03:35:16;;;;;;;2.35;0.80;;;;;;;19.48;54.35;99955.28;4986780;28;20387;-61
2023/10/22 03:37:42;;;;;;;1.83;0.70;;;;;;;19.50;54.29;99969.19;4986891;28;20142;-63
2023/10/22 03:40:09;;;;;;;1.75;0.60;;;;;;;19.47;54.32;99970.34;4986193;28;20030;-60
2023/10/22 03:42:35;;;;;;;2.35;0.70;;;;;;;19.50;54.13;99971.81;4986575;28;20101;-62
2023/10/22 03:45:00;;;;;;;1.42;0.68;;;;;;;19.46;54.17;99973.94;4986182;28;20034;-60
2023/10/22 03:47:25;;;;;;;1.90;0.80;;;;;;;19.49;54.28;99986.03;4986455;28;20048;-62
2023/10/22 03:49:50;;;;;;;2.17;0.85;;;;;;;19.48;54.40;99993.09;4986582;28;20399;-61
2023/10/22 03:52:16;;;;;;;3.17;0.90;;;;;;;19.47;54.24;99996.75;4986541;28;20074;-61
2023/10/22 03:54:41;;;;;;;2.87;0.80;;;;;;;19.46;54.30;99995.09;4986152;28;20260;-62
2023/10/22 03:57:06;;;;;;;1.43;0.80;;;;;;;19.46;54.14;100004.84;4986502;28;20268;-62
2023/10/22 03:59:32;;;;;;;2.47;0.80;;;;;;;19.48;54.12;100011.59;4986297;28;20268;-62
2023/10/22 04:01:57;;;;;;;2.60;0.90;;;;;;;19.47;54.03;100017.03;4986154;28;20052;-62
2023/10/22 04:04:22;;;;;;;5.07;0.93;;;;;;;19.45;54.00;100022.47;4988700;28;20066;-61
2023/10/22 04:06:47;;;;;;;2.88;0.90;;;;;;;19.46;53.95;100026.78;4989994;28;20264;-62
2023/10/22 04:09:13;;;;;;;1.63;0.70;;;;;;;19.46;54.11;100021.50;4989823;28;20431;-61
2023/10/22 04:11:38;;;;;;;2.92;1.20;;;;;;;19.45;53.99;100026.94;4989660;28;20458;-61
2023/10/22 04:14:03;;;;;;;3.22;0.88;;;;;;;19.46;54.09;100032.09;4989790;28;20060;-61
2023/10/22 04:16:29;;;;;;;1.42;0.80;;;;;;;19.46;54.01;100045.28;4989407;28;20049;-61
2023/10/22 04:18:54;;;;;;;3.05;1.00;;;;;;;19.46;53.85;100052.41;4989775;28;20030;-61
2023/10/22 04:21:20;;;;;;;1.77;0.95;;;;;;;19.44;53.69;100043.78;4989422;28;20041;-61
2023/10/22 04:23:46;;;;;;;2.70;0.80;;;;;;;19.44;53.91;100057.84;4989422;28;20146;-62
2023/10/22 04:26:12;;;;;;;2.58;0.80;;;;;;;19.43;53.95;100060.63;4989558;28;20085;-60
2023/10/22 04:28:39;;;;;;;3.20;1.17;;;;;;;19.43;53.98;100072.03;4989151;28;20039;-63
2023/10/22 04:31:04;;;;;;;3.47;1.00;;;;;;;19.44;54.01;100071.03;4989182;28;20041;-63
2023/10/22 04:33:30;;;;;;;2.58;1.10;;;;;;;19.43;53.88;100074.66;4989096;28;20030;-61
2023/10/22 04:35:55;;;;;;;2.65;0.90;;;;;;;19.41;53.92;100071.34;4989336;28;20534;-61
2023/10/22 04:38:20;;;;;;;2.67;0.90;;;;;;;19.44;53.86;100078.13;4989411;28;20034;-61
2023/10/22 04:40:46;;;;;;;1.92;0.80;;;;;;;19.42;53.91;100080.91;4989207;28;20031;-62
2023/10/22 04:43:12;;;;;;;2.45;0.80;;;;;;;19.41;53.97;100084.56;4989272;28;20030;-61
2023/10/22 04:45:37;;;;;;;2.78;0.93;;;;;;;19.42;53.86;100094.13;4988801;28;20475;-62
2023/10/22 04:48:03;;;;;;;2.50;0.88;;;;;;;19.40;53.72;100094.28;4989539;28;20038;-62
2023/10/22 04:50:29;;;;;;;3.67;1.00;;;;;;;19.40;53.79;100096.09;4988887;28;20038;-62
2023/10/22 04:52:55;;;;;;;2.70;1.10;;;;;;;19.40;53.77;100107.50;4989265;28;20030;-63
2023/10/22 04:55:20;;;;;;;2.92;0.90;;;;;;;19.42;53.83;100107.34;4988840;28;20422;-65
2023/10/22 04:57:45;;;;;;;2.67;0.90;;;;;;;19.40;53.86;100107.50;4989057;28;20034;-63
2023/10/22 05:00:11;;;;;;;3.95;1.10;;;;;;;19.40;53.84;100114.59;4988559;28;20049;-64
2023/10/22 05:02:37;;;;;;;2.50;0.80;;;;;;;19.36;53.64;100110.63;4989042;28;20034;-61
2023/10/22 05:05:03;;;;;;;1.83;0.80;;;;;;;19.41;53.69;100121.56;4988848;28;20034;-63
2023/10/22 05:07:29;;;;;;;2.85;1.08;;;;;;;19.38;53.71;100125.31;4988888;28;20048;-62
2023/10/22 05:09:54;;;;;;;2.22;0.80;;;;;;;19.38;53.67;100124.50;4988636;28;20034;-61
2023/10/22 05:12:20;;;;;;;1.70;0.82;;;;;;;19.37;53.60;100136.03;4988392;28;20030;-62
2023/10/22 05:14:45;;;;;;;2.45;1.00;;;;;;;19.36;53.66;100137.84;4987773;28;20142;-60
2023/10/22 05:17:10;;;;;;;2.00;0.80;;;;;;;19.37;53.61;100139.50;4988932;28;20030;-61
2023/10/22 05:19:36;;;;;;;2.70;1.00;;;;;;;19.37;53.61;100138.69;4988612;28;20466;-61
2023/10/22 05:22:04;;;;;;;2.90;1.00;;;;;;;19.35;53.50;100140.66;4988218;28;20097;-61
2023/10/22 05:24:30;;;;;;;3.65;0.90;;;;;;;19.36;53.58;100151.06;4988353;28;20038;-61
2023/10/22 05:26:55;;;;;;;2.15;0.70;;;;;;;19.36;53.52;100153.72;4988211;28;20057;-60
2023/10/22 05:29:21;;;;;;;4.00;0.98;;;;;;;19.37;53.55;100159.81;4987630;28;20534;-62
2023/10/22 05:31:46;;;;;;;2.25;0.80;;;;;;;19.35;53.52;100159.97;4988613;28;20077;-62
2023/10/22 05:34:11;;;;;;;2.78;0.90;;;;;;;19.35;53.51;100167.06;4988297;28;20088;-62
2023/10/22 05:36:36;;;;;;;2.30;1.00;;;;;;;19.35;53.61;100167.06;4988296;28;20081;-61
2023/10/22 05:39:02;;;;;;;2.67;1.13;;;;;;;19.38;53.84;100169.41;4988222;28;20030;-62
2023/10/22 05:41:28;;;;;;;2.75;0.68;;;;;;;19.37;53.66;100165.09;4988056;28;20108;-61
2023/10/22 05:43:56;;;;;;;1.88;0.80;;;;;;;19.37;53.54;100181.78;4987598;28;20029;-62
2023/10/22 05:46:25;;;;;;;3.05;0.85;;;;;;;19.39;53.57;100192.19;4988238;28;20534;-62
2023/10/22 05:48:50;;;;;;;2.88;0.90;;;;;;;19.38;53.47;100193.19;4988158;28;20030;-63
2023/10/22 05:51:15;;;;;;;1.50;0.70;;;;;;;19.39;53.58;100189.56;4987918;28;20076;-61
2023/10/22 05:53:41;;;;;;;1.48;0.80;;;;;;;19.40;53.59;100197.31;4987756;28;20486;-62
2023/10/22 05:56:06;;;;;;;1.67;0.70;;;;;;;19.38;53.59;100194.00;4987354;28;20128;-63
2023/10/22 05:58:31;;;;;;;2.95;0.80;;;;;;;19.42;53.52;100205.09;4987497;28;20629;-62
2023/10/22 06:00:56;;;;;;;1.58;0.70;;;;;;;19.41;53.81;100203.47;4987300;28;20034;-63
2023/10/22 06:03:22;;;;;;;2.42;0.82;;;;;;;19.42;53.72;100213.03;4987802;28;20038;-64
2023/10/22 06:05:47;;;;;;;1.98;0.98;;;;;;;19.42;53.59;100207.75;4987644;28;20061;-61
2023/10/22 06:08:13;;;;;;;1.98;0.80;;;;;;;19.43;53.72;100222.63;4987609;28;20129;-63
2023/10/22 06:10:42;;;;;;;1.52;0.80;;;;;;;19.42;53.67;100231.53;4987473;28;20034;-65
2023/10/22 06:13:08;;;;;;;1.75;0.88;;;;;;;19.43;53.54;100233.22;4987387;28;20158;-61
2023/10/22 06:15:39;;;;;;;2.33;0.80;;;;;;;19.43;53.58;100240.31;4987727;28;20092;-62
2023/10/22 06:18:05;;;;;;;2.25;0.60;;;;;;;19.42;53.62;100234.19;4987659;28;20468;-63
2023/10/22 06:20:31;;;;;;;1.92;0.80;;;;;;;19.44;53.66;100242.81;4987143;28;20065;-61
2023/10/22 06:22:56;;;;;;;2.65;0.90;;;;;;;19.45;53.69;100246.28;4987292;28;20060;-62
2023/10/22 06:25:22;;;;;;;1.63;0.70;;;;;;;19.44;53.50;100248.09;4986728;28;20423;-62
2023/10/22 06:27:47;;;;;;;3.13;0.80;;;;;;;19.45;53.43;100259.47;4987021;28;20046;-63
2023/10/22 06:30:13;;;;;;;2.58;0.73;;;;;;;19.48;53.60;100262.66;4987320;28;20045;-61
2023/10/22 06:32:38;;;;;;;3.20;0.93;;;;;;;19.46;53.97;100272.56;4987327;28;20072;-61
2023/10/22 06:35:05;;;;;;;2.83;0.77;;;;;;;19.43;53.85;100274.66;4987459;28;20034;-62
2023/10/22 06:37:31;;;;;;;3.83;1.05;;;;;;;19.43;54.04;100283.41;4986940;28;20076;-63
2023/10/22 06:40:00;;;;;;;3.58;0.90;;;;;;;19.47;53.83;100286.59;4986919;28;20069;-62
2023/10/22 06:42:26;;;;;;;2.92;0.90;;;;;;;19.48;53.60;100299.66;4987181;28;20800;-62
2023/10/22 06:44:51;;;;;;;1.35;0.68;;;;;;;19.50;53.47;100299.50;4987086;28;20045;-60
2023/10/22 06:47:17;;;;;;;2.90;1.00;;;;;;;19.49;53.59;100295.22;4987129;28;20026;-63
2023/10/22 06:49:42;;;;;;;2.83;0.90;;;;;;;19.50;53.72;100304.78;4986831;28;20049;-60
2023/10/22 06:52:08;;;;;;;1.92;0.77;;;;;;;19.50;53.80;100302.16;4986987;28;20088;-60
2023/10/22 06:54:33;;;;;;;3.00;0.87;;;;;;;19.47;53.92;100308.59;4986838;28;20027;-61
2023/10/22 06:56:59;;;;;;;2.13;0.70;;;;;;;19.49;54.00;100316.38;4986890;28;20263;-61
2023/10/22 06:59:24;;;;;;;2.03;0.80;;;;;;;19.50;53.98;100326.78;4987057;28;20022;-61
2023/10/22 07:01:50;;;;;;;2.08;0.80;;;;;;;19.50;53.72;100328.59;4986962;28;20077;-61
2023/10/22 07:04:15;;;;;;;3.03;0.90;;;;;;;19.51;53.80;100331.06;4986605;28;20100;-61
2023/10/22 07:06:40;;;;;;;4.15;0.70;;;;;;;19.52;53.91;100330.09;4987097;28;20271;-63
2023/10/22 07:09:06;;;;;;;2.22;0.80;;;;;;;19.51;54.00;100336.38;4987331;28;20039;-61
2023/10/22 07:11:33;;;;;;;2.70;0.60;;;;;;;19.51;53.99;100333.72;4985575;28;20062;-63
2023/10/22 07:13:58;;;;;;;3.65;0.73;;;;;;;19.52;54.06;100340.69;4987123;28;20088;-60
2023/10/22 07:16:24;;;;;;;2.90;0.73;;;;;;;19.52;54.18;100343.31;4985427;28;20034;-61
2023/10/22 07:18:50;;;;;;;5.25;0.70;;;;;;;19.53;54.08;100354.72;4986875;28;20492;-59
2023/10/22 07:21:15;;;;;;;1.92;0.77;;;;;;;19.53;54.06;100363.47;4986301;28;20038;-62
2023/10/22 07:23:40;;;;;;;2.58;0.80;;;;;;;19.54;54.21;100364.31;4986403;28;20485;-61
2023/10/22 07:26:06;;;;;;;2.70;1.00;;;;;;;19.53;54.03;100374.03;4986182;28;20082;-61
2023/10/22 07:28:31;;;;;;;4.40;0.82;;;;;;;19.54;54.05;100381.00;4986403;28;20460;-61
2023/10/22 07:30:56;;;;;;;2.78;0.70;;;;;;;19.54;54.19;100386.28;4985347;28;20027;-61
2023/10/22 07:33:24;;;;;;;3.13;0.80;;;;;;;19.53;54.18;100387.25;4986850;28;20427;-60
2023/10/22 07:35:54;;;;;;;1.63;0.68;;;;;;;19.50;54.48;100398.16;4985254;28;20432;-61
2023/10/22 07:38:19;;;;;;;2.25;0.70;;;;;;;19.48;54.61;100399.25;4989022;28;20034;-62
2023/10/22 07:40:44;;;;;;;2.78;0.80;;;;;;;19.47;54.94;100403.72;4990395;28;20036;-62
2023/10/22 07:43:10;;;;;;;4.55;0.90;;;;;;;19.48;54.82;100405.38;4990592;28;20434;-61
2023/10/22 07:45:38;;;;;;;3.60;0.93;;;;;;;19.49;54.84;100411.50;4990006;28;20072;-63
2023/10/22 07:48:04;;;;;;;4.20;0.80;;;;;;;19.47;55.24;100411.66;4989933;28;20034;-62
2023/10/22 07:50:29;;;;;;;4.82;1.27;;;;;;;19.47;55.29;100414.28;4988745;28;20037;-61
2023/10/22 07:52:54;;;;;;;4.18;0.90;;;;;;;19.50;55.10;100421.94;4989979;28;20030;-62
2023/10/22 07:55:20;;;;;;;2.40;0.82;;;;;;;19.48;55.19;100430.97;4989772;28;20467;-60
2023/10/22 07:57:45;;;;;;;5.68;1.05;;;;;;;19.44;54.92;100424.28;4989873;28;20510;-61
2023/10/22 08:00:11;;;;;;;3.10;1.10;;;;;;;19.42;55.33;100429.72;4989647;28;20027;-64
2023/10/22 08:02:36;;;;;;;1.48;0.57;;;;;;;19.37;55.66;100430.16;4989513;28;20268;-63
2023/10/22 08:05:02;;;;;;;3.20;0.80;;;;;;;19.34;55.73;100419.03;4989476;28;20459;-62
2023/10/22 08:07:27;;;;;;;2.88;0.70;;;;;;;19.32;55.89;100429.75;4989089;28;20279;-61
2023/10/22 08:09:53;;;;;;;3.70;1.20;;;;;;;19.30;55.80;100426.44;4988634;28;20447;-62
2023/10/22 08:12:18;;;;;;;4.55;0.90;;;;;;;19.31;56.17;100425.47;4987826;28;20039;-63
2023/10/22 08:14:43;;;;;;;5.05;0.70;;;;;;;19.29;55.97;100426.56;4989049;28;20482;-63
2023/10/22 08:17:09;;;;;;;2.85;0.85;;;;;;;19.28;56.12;100428.38;4988636;28;20030;-60
2023/10/22 08:19:34;;;;;;;3.35;0.90;;;;;;;19.32;56.15;100432.38;4988720;28;20120;-61
2023/10/22 08:21:59;;;;;;;2.78;0.75;;;;;;;19.42;55.78;100439.47;4988741;28;20077;-62
2023/10/22 08:24:25;;;;;;;3.55;0.80;;;;;;;19.41;55.87;100446.56;4987898;28;20129;-61
2023/10/22 08:26:50;;;;;;;4.10;1.00;;;;;;;19.38;56.15;100438.94;4986497;28;21293;-63
2023/10/22 08:29:15;;;;;;;1.83;0.77;;;;;;;19.38;56.08;100446.84;4989206;28;20291;-61
2023/10/22 08:31:40;;;;;;;3.25;1.10;;;;;;;19.54;55.57;100454.19;4987994;28;20644;-61
2023/10/22 08:34:06;;;;;;;3.25;0.80;;;;;;;19.65;55.26;100454.00;4988297;28;20060;-62
2023/10/22 08:36:32;;;;;;;4.57;0.82;;;;;;;19.72;55.23;100460.38;4988543;28;20030;-60
2023/10/22 08:38:57;;;;;;;2.20;0.80;;;;;;;19.76;54.80;100463.63;4988131;28;20026;-60
2023/10/22 08:41:30;;;;;;;2.30;0.80;;;;;;;19.75;54.83;100460.09;4989594;28;20067;-60
2023/10/22 08:44:03;;;;;;;2.80;1.02;;;;;;;19.63;55.27;100471.84;4988670;28;20266;-62
2023/10/22 08:46:28;;;;;;;1.63;0.70;;;;;;;19.55;55.56;100464.63;4989047;28;20034;-63
2023/10/22 08:48:54;;;;;;;2.15;0.80;;;;;;;19.50;55.77;100477.44;4988086;28;20121;-60
2023/10/22 08:51:22;;;;;;;2.28;0.70;;;;;;;19.44;55.99;100474.50;4989103;28;20742;-62
2023/10/22 08:53:48;;;;;;;2.38;0.88;;;;;;;19.42;56.11;100487.84;4988869;28;20084;-60
2023/10/22 08:56:15;;;;;;;1.63;0.68;;;;;;;19.39;56.13;100480.22;4989019;28;20483;-60
2023/10/22 08:58:40;;;;;;;1.75;0.73;;;;;;;19.37;56.37;100480.34;4989121;28;20141;-61
2023/10/22 09:01:05;;;;;;;3.25;0.80;;;;;;;19.38;56.34;100483.84;4988794;28;20550;-62
2023/10/22 09:03:32;;;;;;;4.18;0.77;;;;;;;19.39;56.47;100488.13;4988936;28;20057;-60
2023/10/22 09:05:58;;;;;;;4.15;0.98;;;;;;;19.37;56.44;100488.28;4989298;28;20073;-61
2023/10/22 09:08:43;;;;;;;2.70;0.80;;;;;;;19.37;56.50;100495.38;4988296;28;20040;-61
2023/10/22 09:11:13;;;;;;;2.33;0.70;;;;;;;19.33;56.56;100494.84;4988194;28;20034;-63
2023/10/22 09:13:38;;;;;;;5.18;0.90;;;;;;;19.40;56.34;100505.66;4988308;28;20034;-62
2023/10/22 09:16:04;;;;;;;6.13;0.88;;;;;;;19.39;56.24;100501.34;4988364;28;20391;-63
2023/10/22 09:18:29;;;;;;;2.60;0.80;;;;;;;19.42;56.15;100500.25;4987161;28;20030;-64
2023/10/22 09:21:06;;;;;;;2.85;0.85;;;;;;;19.41;56.19;100510.00;4987791;28;20037;-66
2023/10/22 09:23:31;;;;;;;2.40;0.90;;;;;;;19.42;56.12;100511.63;4988089;28;20032;-71
2023/10/22 09:28:26;;;;;;;2.40;0.68;;;;;;;19.42;56.05;100526.66;4981073;28;20125;-71
2023/10/22 09:30:58;;;;;;;3.33;0.77;;;;;;;19.41;56.02;100528.50;4980853;28;20046;-72
2023/10/22 09:33:34;;;;;;;2.13;0.82;;;;;;;19.38;56.28;100524.31;4984407;28;20073;-72
2023/10/22 09:36:07;;;;;;;2.78;0.80;;;;;;;19.41;56.37;100525.84;4983060;28;20027;-72
2023/10/22 09:38:45;;;;;;;1.92;0.75;;;;;;;19.48;55.90;100521.66;4981024;28;20058;-72
2023/10/22 09:41:12;;;;;;;2.55;0.77;;;;;;;19.60;55.57;100532.91;4981019;28;20045;-71
2023/10/22 09:43:38;;;;;;;3.15;0.80;;;;;;;19.65;55.36;100535.13;4979722;28;20032;-71
2023/10/22 09:46:06;;;;;;;3.67;0.80;;;;;;;19.70;55.37;100546.13;4980229;28;20038;-72
2023/10/22 09:48:34;;;;;;;2.92;0.90;;;;;;;19.71;55.25;100543.34;4983476;28;20049;-72
2023/10/22 09:51:02;;;;;;;3.50;0.80;;;;;;;19.77;54.78;100549.03;4999235;28;20375;-73
2023/10/22 09:53:31;;;;;;;2.53;0.70;;;;;;;19.77;54.67;100552.50;5000756;28;20025;-70
2023/10/22 09:55:56;;;;;;;3.85;0.90;;;;;;;19.63;55.30;100564.34;4997073;28;20069;-70
2023/10/22 09:58:28;;;;;;;5.47;0.80;;;;;;;19.49;55.65;100564.78;4999414;28;20152;-69
2023/10/22 10:00:54;;;;;;;3.55;0.95;;;;;;;19.42;55.88;100569.78;4999567;28;20393;-71
2023/10/22 10:03:20;;;;;;;3.78;0.80;;;;;;;19.38;56.05;100566.59;4999637;28;20564;-70
2023/10/22 10:05:47;;;;;;;2.70;0.93;;;;;;;19.36;56.09;100560.63;4999078;28;20097;-73
2023/10/22 10:08:14;;;;;;;1.70;0.70;;;;;;;19.35;56.19;100561.59;4999410;28;20037;-71
2023/10/22 10:10:39;;;;;;;2.25;0.93;;;;;;;19.35;56.13;100563.41;4997926;28;20030;-69
2023/10/22 10:13:05;;;;;;;3.47;1.17;;;;;;;19.37;56.53;100564.91;4999560;28;20169;-73
2023/10/22 10:15:35;;;;;;;2.65;0.90;;;;;;;19.45;55.85;100561.56;4998782;28;20401;-74
2023/10/22 10:18:01;;;;;;;2.28;0.90;;;;;;;19.56;55.64;100565.88;4999287;28;20034;-72
2023/10/22 10:20:28;;;;;;;3.55;0.80;;;;;;;19.62;55.32;100570.59;5000079;28;20034;-72
2023/10/22 10:23:05;;;;;;;3.70;0.80;;;;;;;19.65;55.48;100578.25;5000574;28;20044;-73
2023/10/22 10:25:33;;;;;;;6.13;1.27;;;;;;;19.69;55.11;100584.09;5000144;28;20038;-72
2023/10/22 10:28:03;;;;;;;3.22;0.77;;;;;;;19.72;54.72;100587.28;4998682;28;20228;-73
2023/10/22 10:30:30;;;;;;;3.13;0.85;;;;;;;19.58;55.36;100585.94;4999129;28;20091;-70
2023/10/22 10:32:55;;;;;;;3.38;1.00;;;;;;;19.67;55.08;100591.34;4997897;28;20456;-71
2023/10/22 10:35:21;;;;;;;3.60;1.00;;;;;;;19.74;54.95;100592.44;4999009;28;20048;-69
2023/10/22 10:38:15;;;;;;;6.30;1.00;;;;;;;19.75;55.01;100599.41;4999380;28;20030;-70
2023/10/22 10:40:42;;;;;;;3.22;0.85;;;;;;;19.80;54.77;100597.19;4998121;28;20492;-69
2023/10/22 10:43:08;;;;;;;4.25;0.85;;;;;;;19.81;55.01;100592.75;5000390;28;20674;-71
2023/10/22 10:45:34;;;;;;;3.50;0.90;;;;;;;19.77;54.97;100594.81;4999363;28;20037;-71
2023/10/22 10:47:59;;;;;;;3.58;1.10;;;;;;;19.78;55.03;100590.38;4980915;28;20045;-71
2023/10/22 10:50:25;;;;;;;4.22;1.10;;;;;;;19.73;55.12;100594.25;4995935;28;20048;-72
2023/10/22 10:52:52;;;;;;;5.22;0.98;;;;;;;19.64;55.65;100596.91;4998640;28;20034;-72
2023/10/22 10:55:20;;;;;;;4.68;1.40;;;;;;;19.54;55.99;100594.28;4997518;28;20532;-70
2023/10/22 10:57:53;;;;;;;4.28;1.10;;;;;;;19.46;56.20;100600.25;4998873;28;20077;-73
2023/10/22 11:00:21;;;;;;;5.38;1.15;;;;;;;19.42;56.29;100606.78;5000101;28;20087;-73
2023/10/22 11:02:54;;;;;;;6.43;1.10;;;;;;;19.37;56.50;100596.63;4998988;28;20960;-74
2023/10/22 11:05:39;;;;;;;5.72;1.10;;;;;;;19.36;56.81;100605.53;4999490;28;20092;-69
2023/10/22 11:08:18;;;;;;;3.63;1.00;;;;;;;19.34;56.64;100598.72;4996924;28;20466;-71
2023/10/22 11:10:47;;;;;;;4.70;0.90;;;;;;;19.36;56.65;100602.06;4999034;28;20121;-69
2023/10/22 11:13:13;;;;;;;4.43;0.90;;;;;;;19.37;56.58;100598.44;5000742;28;20410;-74
2023/10/22 11:15:40;;;;;;;2.67;0.88;;;;;;;19.49;56.08;100599.16;5003810;28;20044;-72
2023/10/22 11:18:08;;;;;;;4.85;1.13;;;;;;;19.56;55.71;100605.53;5006094;28;20038;-73
2023/10/22 11:20:34;;;;;;;3.90;0.90;;;;;;;19.63;55.70;100611.94;5002242;28;20033;-72
2023/10/22 11:22:59;;;;;;;3.70;0.93;;;;;;;19.70;55.67;100609.56;5003366;28;20038;-72
2023/10/22 11:25:27;;;;;;;3.78;0.80;;;;;;;19.70;55.37;100607.75;5003615;28;20076;-72
2023/10/22 11:27:53;;;;;;;4.15;1.10;;;;;;;19.73;55.17;100604.00;5003551;28;20054;-72